Time,TemperatureF,DewpointF,PressureIn,WindDirection,WindDirectionDegrees,WindSpeedMPH,WindSpeedGustMPH,Humidity,HourlyPrecipIn,Conditions,Clouds,dailyrainin,SoftwareType,DateUTC
2013-05-25 00:00:00,45.0,8.4,30.27,WNW,286,0.0,8.7,22,0.00,,SKC,0.00,VWS V14.01,2013-05-25 04:00:00,
2013-05-25 00:20:00,44.2,8.8,30.27,WNW,299,2.7,4.0,23,0.00,,SKC,0.00,VWS V14.01,2013-05-25 04:20:00,
2013-05-25 00:40:00,44.1,8.6,30.29,SW,219,3.1,6.3,23,0.00,,SKC,0.00,VWS V14.01,2013-05-25 04:40:00,
2013-05-25 01:00:00,44.1,8.6,30.29,NW,305,0.0,4.0,23,0.00,,SKC,0.00,VWS V14.01,2013-05-25 05:00:00,
2013-05-25 01:20:00,43.7,8.3,30.29,ESE,113,0.0,0.0,23,0.00,,SKC,0.00,VWS V14.01,2013-05-25 05:20:00,
2013-05-25 01:40:00,41.5,9.2,30.29,SSE,156,0.0,0.0,26,0.00,,SKC,0.00,VWS V14.01,2013-05-25 05:40:00,
2013-05-25 02:00:00,40.5,10.7,30.29,SW,235,0.0,0.0,29,0.00,,SKC,0.00,VWS V14.01,2013-05-25 06:00:00,
2013-05-25 02:20:00,39.4,9.8,30.29,SW,235,0.0,0.0,29,0.00,,SKC,0.00,VWS V14.01,2013-05-25 06:20:00,
2013-05-25 02:40:00,38.7,9.9,30.29,SSE,148,0.0,0.0,30,0.00,,SKC,0.00,VWS V14.01,2013-05-25 06:40:00,
2013-05-25 03:00:00,38.7,11.4,30.29,WNW,294,0.0,0.0,32,0.00,,SKC,0.00,VWS V14.01,2013-05-25 07:00:00,
2013-05-25 03:20:00,38.8,14.2,30.29,WNW,294,0.0,0.0,36,0.00,,SKC,0.00,VWS V14.01,2013-05-25 07:20:00,
2013-05-25 03:40:00,39.7,14.3,30.29,WNW,286,4.0,4.0,35,0.00,,SKC,0.00,VWS V14.01,2013-05-25 07:40:00,
2013-05-25 04:00:00,40.5,15.0,30.29,WNW,296,0.0,8.1,35,0.00,,SKC,0.00,VWS V14.01,2013-05-25 08:00:00,
2013-05-25 04:20:00,40.5,12.2,30.32,NNW,335,0.0,2.7,31,0.00,,SKC,0.00,VWS V14.01,2013-05-25 08:20:00,
2013-05-25 04:40:00,39.9,12.5,30.32,West,266,0.0,5.8,32,0.00,,SKC,0.00,VWS V14.01,2013-05-25 08:40:00,
2013-05-25 05:00:00,39.9,12.5,30.32,WNW,301,5.8,5.8,32,0.00,,SKC,0.00,VWS V14.01,2013-05-25 09:00:00,
2013-05-25 05:20:00,39.9,11.8,30.32,SSE,161,0.0,5.8,31,0.00,,SKC,0.00,VWS V14.01,2013-05-25 09:20:00,
2013-05-25 05:40:00,39.2,11.8,30.32,WNW,292,0.0,3.1,32,0.00,,SKC,0.00,VWS V14.01,2013-05-25 09:40:00,
2013-05-25 06:00:00,38.5,12.6,30.32,WNW,286,0.0,0.0,34,0.00,,SKC,0.00,VWS V14.01,2013-05-25 10:00:00,
2013-05-25 06:20:00,39.0,14.3,30.32,WNW,282,0.0,3.6,36,0.00,,SKC,0.00,VWS V14.01,2013-05-25 10:20:00,
2013-05-25 06:40:00,39.7,13.7,30.32,West,281,0.0,4.0,34,0.00,,SKC,0.00,VWS V14.01,2013-05-25 10:40:00,
2013-05-25 07:00:00,39.9,13.2,30.35,SE,140,0.0,8.7,33,0.00,,SKC,0.00,VWS V14.01,2013-05-25 11:00:00,
2013-05-25 07:20:00,40.5,15.0,30.35,NW,307,2.7,5.8,35,0.00,,SKC,0.00,VWS V14.01,2013-05-25 11:20:00,
2013-05-25 07:40:00,42.1,13.6,30.35,NW,306,4.0,6.3,31,0.00,,SKC,0.00,VWS V14.01,2013-05-25 11:40:00,
2013-05-25 08:00:00,43.0,12.1,30.35,West,274,5.4,5.4,28,0.00,,SKC,0.00,VWS V14.01,2013-05-25 12:00:00,
2013-05-25 08:20:00,44.4,13.4,30.35,WNW,300,8.1,8.7,28,0.00,,SKC,0.00,VWS V14.01,2013-05-25 12:20:00,
2013-05-25 08:40:00,45.9,12.0,30.35,WNW,300,3.1,8.1,25,0.00,,SKC,0.00,VWS V14.01,2013-05-25 12:40:00,
2013-05-25 09:00:00,47.3,10.4,30.35,WSW,252,3.6,6.7,22,0.00,,SKC,0.00,VWS V14.01,2013-05-25 13:00:00,
2013-05-25 09:20:00,48.2,7.9,30.35,West,275,8.1,8.1,19,0.00,,SKC,0.00,VWS V14.01,2013-05-25 13:20:00,
2013-05-25 09:40:00,50.5,9.8,30.35,WNW,288,6.3,10.5,19,0.00,,SKC,0.00,VWS V14.01,2013-05-25 13:40:00,
2013-05-25 10:00:00,56.3,12.1,30.35,WNW,300,4.0,6.3,17,0.00,,SKC,0.00,VWS V14.01,2013-05-25 14:00:00,
2013-05-25 10:20:00,58.1,13.5,30.35,WNW,285,3.6,8.1,17,0.00,,SKC,0.00,VWS V14.01,2013-05-25 14:20:00,
2013-05-25 10:40:00,58.5,13.8,30.35,West,270,12.3,12.3,17,0.00,,SKC,0.00,VWS V14.01,2013-05-25 14:40:00,
2013-05-25 11:00:00,59.5,14.7,30.38,WNW,291,7.6,12.3,17,0.00,,SKC,0.00,VWS V14.01,2013-05-25 15:00:00,
2013-05-25 11:20:00,60.4,15.4,30.38,ESE,122,2.2,7.6,17,0.00,,SKC,0.00,VWS V14.01,2013-05-25 15:20:00,
2013-05-25 11:40:00,62.2,15.5,30.38,WNW,294,3.6,8.1,16,0.00,,SKC,0.00,VWS V14.01,2013-05-25 15:40:00,
2013-05-25 12:00:00,63.3,16.4,30.35,NW,325,0.0,4.0,16,0.00,,SKC,0.00,VWS V14.01,2013-05-25 16:00:00,
2013-05-25 12:20:00,64.2,17.1,30.35,West,271,8.7,8.7,16,0.00,,SKC,0.00,VWS V14.01,2013-05-25 16:20:00,
2013-05-25 12:40:00,64.2,17.1,30.35,WSW,256,0.0,8.7,16,0.00,,SKC,0.00,VWS V14.01,2013-05-25 16:40:00,
2013-05-25 13:00:00,64.8,16.1,30.35,WNW,283,3.1,4.5,15,0.00,,SKC,0.00,VWS V14.01,2013-05-25 17:00:00,
2013-05-25 13:20:00,64.4,15.8,30.35,WNW,289,5.4,7.6,15,0.00,,SKC,0.00,VWS V14.01,2013-05-25 17:20:00,
2013-05-25 13:40:00,65.7,16.8,30.35,WNW,300,5.8,5.8,15,0.00,,SKC,0.00,VWS V14.01,2013-05-25 17:40:00,
2013-05-25 14:00:00,66.6,17.5,30.35,NNW,340,3.1,6.3,15,0.00,,SKC,0.00,VWS V14.01,2013-05-25 18:00:00,
2013-05-25 14:20:00,66.0,17.1,30.35,NW,313,0.0,8.1,15,0.00,,SKC,0.00,VWS V14.01,2013-05-25 18:20:00,
2013-05-25 14:40:00,67.3,18.1,30.32,WNW,301,6.3,8.3,15,0.00,,SKC,0.00,VWS V14.01,2013-05-25 18:40:00,
2013-05-25 15:00:00,67.6,18.4,30.32,WNW,291,8.3,8.3,15,0.00,,SKC,0.00,VWS V14.01,2013-05-25 19:00:00,
2013-05-25 15:20:00,65.7,16.8,30.35,NNW,334,2.7,10.5,15,0.00,,SKC,0.00,VWS V14.01,2013-05-25 19:20:00,
2013-05-25 15:40:00,67.5,18.2,30.32,WNW,292,11.4,12.8,15,0.00,,SKC,0.00,VWS V14.01,2013-05-25 19:40:00,
2013-05-25 16:00:00,66.6,17.5,30.32,WNW,285,3.6,11.4,15,0.00,,SKC,0.00,VWS V14.01,2013-05-25 20:00:00,
2013-05-25 16:20:00,66.4,17.4,30.35,West,278,8.3,10.1,15,0.00,,SKC,0.00,VWS V14.01,2013-05-25 20:20:00,
2013-05-25 16:40:00,66.2,17.2,30.35,WSW,250,7.6,8.7,15,0.00,,SKC,0.00,VWS V14.01,2013-05-25 20:40:00,
2013-05-25 17:00:00,64.9,16.2,30.32,WSW,256,5.4,8.1,15,0.00,,SKC,0.00,VWS V14.01,2013-05-25 21:00:00,
2013-05-25 17:20:00,64.8,16.1,30.32,West,270,0.0,9.2,15,0.00,,SKC,0.00,VWS V14.01,2013-05-25 21:20:00,
2013-05-25 17:40:00,65.3,16.5,30.32,West,276,5.4,7.6,15,0.00,,SKC,0.00,VWS V14.01,2013-05-25 21:40:00,
2013-05-25 18:00:00,62.6,15.8,30.32,WNW,283,5.4,8.1,16,0.00,,SKC,0.00,VWS V14.01,2013-05-25 22:00:00,
2013-05-25 18:20:00,62.2,15.5,30.32,WNW,303,0.0,5.4,16,0.00,,SKC,0.00,VWS V14.01,2013-05-25 22:20:00,
2013-05-25 18:40:00,61.2,14.6,30.32,WNW,292,4.0,13.2,16,0.00,,SKC,0.00,VWS V14.01,2013-05-25 22:40:00,
2013-05-25 19:00:00,60.3,15.3,30.32,SW,217,3.6,8.3,17,0.00,,SKC,0.00,VWS V14.01,2013-05-25 23:00:00,
2013-05-25 19:20:00,59.5,14.7,30.32,WNW,283,5.4,8.7,17,0.00,,SKC,0.00,VWS V14.01,2013-05-25 23:20:00,
2013-05-25 19:40:00,58.1,13.5,30.35,WNW,291,6.3,10.5,17,0.00,,SKC,0.00,VWS V14.01,2013-05-25 23:40:00,
2013-05-25 20:00:00,57.0,12.7,30.32,West,264,9.2,9.2,17,0.00,,SKC,0.00,VWS V14.01,2013-05-26 00:00:00,
2013-05-25 20:20:00,55.9,11.8,30.32,WNW,301,2.7,9.2,17,0.00,,SKC,0.00,VWS V14.01,2013-05-26 00:20:00,
2013-05-25 20:40:00,54.3,11.7,30.35,WNW,289,0.0,4.9,18,0.00,,SKC,0.00,VWS V14.01,2013-05-26 00:40:00,
2013-05-25 21:00:00,51.1,10.3,30.35,NW,307,0.0,0.0,19,0.00,,SKC,0.00,VWS V14.01,2013-05-26 01:00:00,
2013-05-25 21:20:00,49.1,8.6,30.35,WNW,283,0.0,0.0,19,0.00,,SKC,0.00,VWS V14.01,2013-05-26 01:20:00,
2013-05-25 21:40:00,48.4,8.0,30.35,SW,215,0.0,0.0,19,0.00,,SKC,0.00,VWS V14.01,2013-05-26 01:40:00,
2013-05-25 22:00:00,47.5,7.3,30.35,WNW,291,0.0,0.0,19,0.00,,SKC,0.00,VWS V14.01,2013-05-26 02:00:00,
2013-05-25 22:20:00,46.8,6.7,30.35,WNW,291,0.0,0.0,19,0.00,,SKC,0.00,VWS V14.01,2013-05-26 02:20:00,
2013-05-25 22:40:00,46.2,7.4,30.35,WNW,291,0.0,0.0,20,0.00,,SKC,0.00,VWS V14.01,2013-05-26 02:40:00,
2013-05-25 23:00:00,44.8,6.2,30.35,WNW,291,0.0,0.0,20,0.00,,SKC,0.00,VWS V14.01,2013-05-26 03:00:00,
2013-05-25 23:20:00,45.1,8.6,30.35,WNW,291,0.0,0.0,22,0.00,,SKC,0.00,VWS V14.01,2013-05-26 03:20:00,
2013-05-25 23:40:00,46.0,12.2,30.35,WNW,291,0.0,0.0,25,0.00,,SKC,0.00,VWS V14.01,2013-05-26 03:40:00,